createdAt,value
2022-09-30T00:01:51.084Z,98564.91
2022-09-30T00:04:24.946Z,98564.34
2022-09-30T00:06:53.869Z,98569.13
2022-09-30T00:09:22.634Z,98561.13
2022-09-30T00:11:49.986Z,98565.66
2022-09-30T00:14:21.840Z,98571.25
2022-09-30T00:16:50.132Z,98560.78
2022-09-30T00:19:17.286Z,98567.50
2022-09-30T00:21:44.936Z,98569.13
2022-09-30T00:24:13.353Z,98565.41
2022-09-30T00:26:40.872Z,98560.06
2022-09-30T00:29:09.702Z,98557.16
2022-09-30T00:31:37.530Z,98561.69
2022-09-30T00:34:08.850Z,98558.94
2022-09-30T00:36:49.965Z,98560.06
2022-09-30T00:39:21.068Z,98560.06
2022-09-30T00:41:55.525Z,98565.31
2022-09-30T00:44:47.994Z,98560.56
2022-09-30T00:47:30.774Z,98557.28
2022-09-30T00:50:30.998Z,98569.44
2022-09-30T00:53:04.221Z,98571.25
2022-09-30T00:56:04.965Z,98572.66
2022-09-30T00:58:55.726Z,98577.78
2022-09-30T01:01:24.460Z,98600.31
2022-09-30T01:04:00.320Z,98595.78
2022-09-30T01:06:29.066Z,98596.56
2022-09-30T01:08:58.540Z,98582.88
2022-09-30T01:11:28.834Z,98586.00
2022-09-30T01:14:04.809Z,98573.81
2022-09-30T01:17:10.611Z,98569.25
2022-09-30T01:19:58.223Z,98588.31
2022-09-30T01:22:47.809Z,98593.38
2022-09-30T01:25:24.239Z,98594.69
2022-09-30T01:28:28.535Z,98591.44
2022-09-30T01:31:43.900Z,98591.78
2022-09-30T01:35:04.711Z,98587.25
2022-09-30T01:37:43.635Z,98582.50
2022-09-30T01:40:40.631Z,98583.41
2022-09-30T01:43:38.450Z,98582.06
2022-09-30T01:46:35.598Z,98599.72
2022-09-30T01:49:17.447Z,98594.97
2022-09-30T01:52:02.500Z,98593.09
2022-09-30T01:54:55.362Z,98590.69
2022-09-30T01:57:25.430Z,98590.69
2022-09-30T02:00:05.307Z,98584.53
2022-09-30T02:03:04.779Z,98580.94
2022-09-30T02:05:53.664Z,98592.91
2022-09-30T02:08:42.166Z,98580.13
2022-09-30T02:11:25.234Z,98578.84
2022-09-30T02:14:13.810Z,98577.31
2022-09-30T02:16:50.739Z,98582.66
2022-09-30T02:19:33.654Z,98593.91
2022-09-30T02:22:11.900Z,98594.38
2022-09-30T02:24:43.793Z,98589.88
2022-09-30T02:27:28.241Z,98589.06
2022-09-30T02:30:04.254Z,98587.19
2022-09-30T02:32:45.630Z,98587.91
2022-09-30T02:35:29.129Z,98588.75
2022-09-30T02:38:05.690Z,98592.09
2022-09-30T02:40:47.251Z,98594.88
2022-09-30T02:43:18.234Z,98593.25
2022-09-30T02:46:08.026Z,98591.97
2022-09-30T02:49:08.947Z,98593.56
2022-09-30T02:52:20.609Z,98592.28
2022-09-30T02:55:17.833Z,98596.59
2022-09-30T02:58:11.421Z,98595.53
2022-09-30T03:00:39.893Z,98592.06
2022-09-30T03:03:23.526Z,98591.97
2022-09-30T03:05:51.958Z,98600.84
2022-09-30T03:08:19.329Z,98607.47
2022-09-30T03:10:51.015Z,98603.13
2022-09-30T03:13:59.404Z,98608.13
2022-09-30T03:16:52.137Z,98617.63
2022-09-30T03:19:42.264Z,98619.47
2022-09-30T03:23:05.826Z,98622.44
2022-09-30T03:26:10.836Z,98621.72
2022-09-30T03:29:14.301Z,98631.59
2022-09-30T03:32:07.755Z,98617.88
2022-09-30T03:35:16.455Z,98629.69
2022-09-30T03:38:00.436Z,98625.41
2022-09-30T03:40:51.684Z,98621.09
2022-09-30T03:43:25.702Z,98620.63
2022-09-30T03:46:44.226Z,98626.28
2022-09-30T03:49:21.978Z,98626.44
2022-09-30T03:51:51.058Z,98623.53
2022-09-30T03:54:18.557Z,98632.81
2022-09-30T03:56:45.653Z,98629.69
2022-09-30T03:59:24.204Z,98640.34
2022-09-30T04:01:52.720Z,98641.34
2022-09-30T04:04:20.371Z,98649.44
2022-09-30T04:06:47.718Z,98642.00
2022-09-30T04:09:15.242Z,98645.78
2022-09-30T04:11:44.008Z,98648.94
2022-09-30T04:14:11.117Z,98645.22
2022-09-30T04:16:38.677Z,98647.91
2022-09-30T04:19:05.950Z,98654.78
2022-09-30T04:21:33.231Z,98647.81
2022-09-30T04:24:00.867Z,98647.63
2022-09-30T04:26:27.969Z,98652.22
2022-09-30T04:28:58.171Z,98642.38
2022-09-30T04:31:26.107Z,98659.47
2022-09-30T04:33:53.115Z,98651.50
2022-09-30T04:36:20.277Z,98648.16
2022-09-30T04:38:47.653Z,98651.59
2022-09-30T04:41:17.881Z,98665.94
2022-09-30T04:43:46.779Z,98653.72
2022-09-30T04:46:20.989Z,98658.25
2022-09-30T04:48:48.546Z,98660.13
2022-09-30T04:51:20.005Z,98661.72
2022-09-30T04:53:49.230Z,98671.28
2022-09-30T04:56:17.091Z,98670.00
2022-09-30T04:58:44.303Z,98672.41
2022-09-30T05:01:15.502Z,98673.22
2022-09-30T05:03:43.912Z,98671.13
2022-09-30T05:06:12.403Z,98677.28
2022-09-30T05:08:44.743Z,98664.03
2022-09-30T05:11:19.173Z,98674.63
2022-09-30T05:13:47.845Z,98683.28
2022-09-30T05:16:16.793Z,98678.28
2022-09-30T05:18:46.104Z,98681.19
2022-09-30T05:21:17.013Z,98689.19
2022-09-30T05:23:45.041Z,98695.13
2022-09-30T05:26:13.012Z,98689.28
2022-09-30T05:28:41.882Z,98693.81
2022-09-30T05:31:10.205Z,98706.28
2022-09-30T05:33:37.537Z,98696.28
2022-09-30T05:36:08.311Z,98696.28
2022-09-30T05:38:36.430Z,98694.50
2022-09-30T05:41:13.639Z,98691.94
2022-09-30T05:43:47.747Z,98689.00
2022-09-30T05:46:19.256Z,98690.13
2022-09-30T05:48:47.343Z,98694.81
2022-09-30T05:51:14.540Z,98692.25
2022-09-30T05:53:42.181Z,98702.28
2022-09-30T05:56:11.117Z,98702.28
2022-09-30T05:58:40.628Z,98704.00
2022-09-30T06:01:15.869Z,98710.94
2022-09-30T06:03:46.635Z,98706.16
2022-09-30T06:06:15.919Z,98712.03
2022-09-30T06:08:44.614Z,98723.19
2022-09-30T06:11:19.179Z,98716.38
2022-09-30T06:13:47.729Z,98715.91
2022-09-30T06:16:18.302Z,98721.72
2022-09-30T06:18:45.927Z,98726.59
2022-09-30T06:21:16.230Z,98729.03
2022-09-30T06:23:44.284Z,98730.50
2022-09-30T06:26:14.402Z,98729.84
2022-09-30T06:28:42.378Z,98725.63
2022-09-30T06:31:10.269Z,98740.53
2022-09-30T06:33:37.698Z,98736.81
2022-09-30T06:36:06.779Z,98735.19
2022-09-30T06:38:37.068Z,98744.13
2022-09-30T06:41:06.277Z,98740.06
2022-09-30T06:43:38.750Z,98734.41
2022-09-30T06:46:18.878Z,98733.25
2022-09-30T06:48:47.480Z,98723.66
2022-09-30T06:51:14.806Z,98720.28
2022-09-30T06:53:43.046Z,98722.72
2022-09-30T06:56:10.377Z,98725.16
2022-09-30T06:58:37.965Z,98734.00
2022-09-30T07:01:07.366Z,98737.13
2022-09-30T07:03:36.262Z,98750.28
2022-09-30T07:06:07.066Z,98747.34
2022-09-30T07:08:37.628Z,98745.59
2022-09-30T07:11:17.202Z,98748.66
2022-09-30T07:13:45.952Z,98752.97
2022-09-30T07:16:15.654Z,98751.78
2022-09-30T07:18:45.662Z,98761.91
2022-09-30T07:21:16.326Z,98761.81
2022-09-30T07:23:48.267Z,98763.41
2022-09-30T07:26:20.882Z,98767.63
2022-09-30T07:28:50.079Z,98774.13
2022-09-30T07:31:33.662Z,98772.00
2022-09-30T07:34:09.187Z,98777.34
2022-09-30T07:36:41.836Z,98772.00
2022-09-30T07:39:10.801Z,98766.75
2022-09-30T07:41:40.392Z,98772.19
2022-09-30T07:44:14.635Z,98765.47
2022-09-30T07:46:44.711Z,98770.41
2022-09-30T07:49:25.537Z,98768.63
2022-09-30T07:51:58.341Z,98772.66
2022-09-30T07:54:32.400Z,98777.22
2022-09-30T07:57:11.574Z,98771.06
2022-09-30T07:59:42.612Z,98774.47
2022-09-30T08:02:18.263Z,98771.41
2022-09-30T08:04:46.451Z,98762.97
2022-09-30T08:07:16.774Z,98771.56
2022-09-30T08:09:44.376Z,98763.56
2022-09-30T08:12:11.650Z,98768.66
2022-09-30T08:14:39.277Z,98777.06
2022-09-30T08:17:06.338Z,98778.88
2022-09-30T08:19:34.083Z,98785.75
2022-09-30T08:24:34.504Z,98774.34
2022-09-30T08:27:02.370Z,98777.56
2022-09-30T08:32:17.316Z,98778.06
2022-09-30T08:34:46.007Z,98781.06
2022-09-30T08:37:13.050Z,98787.78
2022-09-30T08:39:40.315Z,98790.13
2022-09-30T08:42:49.136Z,98791.19
2022-09-30T08:45:38.687Z,98791.34
2022-09-30T08:48:38.715Z,98790.78
2022-09-30T08:51:49.535Z,98809.19
2022-09-30T08:54:24.783Z,98796.38
2022-09-30T08:56:57.695Z,98797.03
2022-09-30T08:59:29.089Z,98800.75
2022-09-30T09:02:17.225Z,98795.41
2022-09-30T09:04:47.879Z,98799.78
2022-09-30T09:07:40.329Z,98795.66
2022-09-30T09:10:29.513Z,98792.50
2022-09-30T09:13:44.585Z,98799.53
2022-09-30T09:16:42.556Z,98787.16
2022-09-30T09:19:19.456Z,98788.28
2022-09-30T09:22:02.594Z,98781.25
2022-09-30T09:24:50.314Z,98790.88
2022-09-30T09:27:35.516Z,98790.72
2022-09-30T09:30:14.185Z,98789.44
2022-09-30T09:32:50.231Z,98787.63
2022-09-30T09:36:06.289Z,98794.91
2022-09-30T09:38:39.830Z,98802.38
2022-09-30T09:41:26.534Z,98815.28
2022-09-30T09:44:23.525Z,98815.53
2022-09-30T09:47:05.340Z,98806.50
2022-09-30T09:49:40.105Z,98813.25
2022-09-30T09:52:14.374Z,98818.53
2022-09-30T09:54:46.697Z,98815.34
2022-09-30T09:57:18.627Z,98805.75
2022-09-30T10:00:27.060Z,98813.06
2022-09-30T10:03:20.556Z,98812.28
2022-09-30T10:06:14.729Z,98811.75
2022-09-30T10:08:56.923Z,98807.06
2022-09-30T10:11:27.573Z,98820.19
2022-09-30T10:14:00.844Z,98819.38
2022-09-30T10:16:36.497Z,98826.38
2022-09-30T10:19:20.222Z,98829.03
2022-09-30T10:21:47.605Z,98828.59
2022-09-30T10:24:32.013Z,98830.56
2022-09-30T10:26:59.387Z,98830.88
2022-09-30T10:29:32.559Z,98832.50
2022-09-30T10:32:04.286Z,98831.19
2022-09-30T10:34:40.304Z,98828.81
2022-09-30T10:37:19.673Z,98832.06
2022-09-30T10:40:09.705Z,98842.53
2022-09-30T10:42:41.796Z,98841.72
2022-09-30T10:45:23.387Z,98839.59
2022-09-30T10:47:55.710Z,98854.06
2022-09-30T10:50:27.678Z,98853.25
2022-09-30T10:53:05.932Z,98854.06
2022-09-30T10:55:45.320Z,98854.06
2022-09-30T10:58:46.530Z,98854.06
2022-09-30T11:01:43.854Z,98861.03
2022-09-30T11:04:33.936Z,98858.63
2022-09-30T11:07:40.653Z,98864.28
2022-09-30T11:10:31.515Z,98861.59
2022-09-30T11:13:27.562Z,98855.19
2022-09-30T11:16:17.563Z,98856.81
2022-09-30T11:19:07.402Z,98852.03
2022-09-30T11:21:46.835Z,98858.97
2022-09-30T11:24:14.370Z,98861.16
2022-09-30T11:26:56.981Z,98868.16
2022-09-30T11:29:46.544Z,98863.91
2022-09-30T11:33:05.488Z,98861.00
2022-09-30T11:35:49.969Z,98873.06
2022-09-30T11:38:48.081Z,98857.56
2022-09-30T11:41:34.954Z,98870.47
2022-09-30T11:44:26.941Z,98871.03
2022-09-30T11:47:27.419Z,98873.47
2022-09-30T11:50:42.576Z,98872.97
2022-09-30T11:53:35.598Z,98873.78
2022-09-30T11:56:45.926Z,98871.66
2022-09-30T11:59:31.902Z,98867.91
2022-09-30T12:02:04.746Z,98869.53
2022-09-30T12:04:41.165Z,98881.91
2022-09-30T12:07:26.166Z,98875.22
2022-09-30T12:10:05.275Z,98879.25
2022-09-30T12:12:32.507Z,98872.91
2022-09-30T12:15:05.782Z,98880.13
2022-09-30T12:17:50.533Z,98882.00
2022-09-30T12:20:28.716Z,98883.63
2022-09-30T12:23:19.754Z,98890.09
2022-09-30T12:26:00.711Z,98883.97
2022-09-30T12:29:15.228Z,98882.88
2022-09-30T12:32:04.058Z,98883.22
2022-09-30T12:35:04.666Z,98883.91
2022-09-30T12:37:38.431Z,98891.44
2022-09-30T12:40:52.821Z,98888.81
2022-09-30T12:43:23.739Z,98896.41
2022-09-30T12:46:18.361Z,98902.66
2022-09-30T12:49:03.729Z,98900.84
2022-09-30T12:51:33.498Z,98901.88
2022-09-30T12:54:14.689Z,98906.19
2022-09-30T12:56:53.543Z,98917.53
2022-09-30T12:59:28.703Z,98915.41
2022-09-30T13:01:58.490Z,98913.50
2022-09-30T13:04:39.268Z,98913.75
2022-09-30T13:07:23.523Z,98920.19
2022-09-30T13:10:22.056Z,98917.50
2022-09-30T13:13:16.823Z,98927.72
2022-09-30T13:15:48.190Z,98929.88
2022-09-30T13:18:21.272Z,98942.25
2022-09-30T13:21:04.347Z,98949.50
2022-09-30T13:23:54.612Z,98951.38
2022-09-30T13:26:44.546Z,98951.94
2022-09-30T13:29:14.528Z,98949.25
2022-09-30T13:31:50.788Z,98955.19
2022-09-30T13:34:30.864Z,98952.50
2022-09-30T13:37:05.920Z,98954.69
2022-09-30T13:39:53.382Z,98955.25
2022-09-30T13:42:30.134Z,98956.34
2022-09-30T13:45:16.964Z,98959.09
2022-09-30T13:47:56.929Z,98954.03
2022-09-30T13:50:46.638Z,98953.81
2022-09-30T13:53:29.581Z,98946.06
2022-09-30T13:56:00.708Z,98960.88
2022-09-30T13:59:06.606Z,98951.88
2022-09-30T14:02:06.467Z,98950.09
2022-09-30T14:04:58.706Z,98950.41
2022-09-30T14:07:58.193Z,98959.09
2022-09-30T14:11:09.550Z,98958.50
2022-09-30T14:13:50.918Z,98967.97
2022-09-30T14:16:58.280Z,98970.66
2022-09-30T14:19:54.607Z,98974.63
2022-09-30T14:22:27.422Z,98967.63
2022-09-30T14:24:54.726Z,98969.19
2022-09-30T14:27:48.375Z,98980.44
2022-09-30T14:30:24.589Z,98983.06
2022-09-30T14:33:25.572Z,98980.38
2022-09-30T14:35:54.639Z,98984.63
2022-09-30T14:38:29.563Z,98980.28
2022-09-30T14:41:07.928Z,98982.38
2022-09-30T14:43:44.282Z,98982.91
2022-09-30T14:46:34.689Z,98979.66
2022-09-30T14:49:09.597Z,98983.41
2022-09-30T14:51:45.363Z,98986.09
2022-09-30T14:54:22.454Z,98987.72
2022-09-30T14:56:53.263Z,98988.78
2022-09-30T14:59:31.387Z,98978.03
2022-09-30T15:02:02.805Z,98989.84
2022-09-30T15:04:39.058Z,98989.84
2022-09-30T15:07:11.827Z,98990.91
2022-09-30T15:09:42.196Z,98980.16
2022-09-30T15:12:17.526Z,98980.16
2022-09-30T15:14:57.182Z,98980.16
2022-09-30T15:17:35.471Z,98990.91
2022-09-30T15:20:28.982Z,98992.53
2022-09-30T15:23:01.217Z,99003.25
2022-09-30T15:25:31.208Z,99007.59
2022-09-30T15:27:58.992Z,99015.16
2022-09-30T15:30:29.503Z,99008.69
2022-09-30T15:33:04.510Z,99013.81
2022-09-30T15:35:36.200Z,99026.19
2022-09-30T15:38:18.061Z,99016.25
2022-09-30T15:40:59.941Z,99024.56
2022-09-30T15:43:51.866Z,99022.13
2022-09-30T15:46:30.906Z,99017.28
2022-09-30T15:49:29.006Z,99025.00
2022-09-30T15:52:28.225Z,99028.69
2022-09-30T15:54:57.668Z,99035.38
2022-09-30T15:57:47.019Z,99039.66
2022-09-30T16:00:40.184Z,99031.53
2022-09-30T16:03:18.185Z,99024.78
2022-09-30T16:05:50.640Z,99021.81
2022-09-30T16:08:27.368Z,99030.91
2022-09-30T16:10:58.360Z,99025.22
2022-09-30T16:13:30.487Z,99026.03
2022-09-30T16:15:58.620Z,99033.28
2022-09-30T16:18:32.743Z,99044.28
2022-09-30T16:21:05.711Z,99037.28
2022-09-30T16:23:38.361Z,99048.00
2022-09-30T16:26:15.635Z,99055.28
2022-09-30T16:28:43.481Z,99061.69
2022-09-30T16:31:12.830Z,99064.66
2022-09-30T16:33:45.252Z,99072.69
2022-09-30T16:36:14.659Z,99064.09
2022-09-30T16:38:42.877Z,99075.88
2022-09-30T16:41:13.677Z,99072.63
2022-09-30T16:43:41.080Z,99074.50
2022-09-30T16:46:10.103Z,99074.75
2022-09-30T16:48:38.410Z,99070.44
2022-09-30T16:51:15.734Z,99069.88
2022-09-30T16:53:44.009Z,99069.88
2022-09-30T16:56:18.253Z,99061.28
2022-09-30T16:58:47.143Z,99063.38
2022-09-30T17:01:24.203Z,99063.38
2022-09-30T17:03:55.802Z,99070.84
2022-09-30T17:06:32.465Z,99075.41
2022-09-30T17:09:08.633Z,99075.66
2022-09-30T17:11:38.001Z,99074.03
2022-09-30T17:14:06.086Z,99084.75
2022-09-30T17:16:34.224Z,99080.47
2022-09-30T17:19:04.617Z,99084.22
2022-09-30T17:21:31.910Z,99082.59
2022-09-30T17:23:59.008Z,99087.16
2022-09-30T17:26:27.014Z,99085.50
2022-09-30T17:28:57.658Z,99083.09
2022-09-30T17:31:36.541Z,99083.09
2022-09-30T17:34:07.954Z,99092.19
2022-09-30T17:36:36.478Z,99090.56
2022-09-30T17:39:06.162Z,99102.91
2022-09-30T17:41:52.758Z,99112.88
2022-09-30T17:44:21.208Z,99120.31
2022-09-30T17:46:48.298Z,99118.72
2022-09-30T17:49:23.910Z,99124.09
2022-09-30T17:51:51.866Z,99121.63
2022-09-30T17:54:19.000Z,99127.81
2022-09-30T17:56:46.130Z,99125.13
2022-09-30T17:59:13.481Z,99133.66
2022-09-30T18:01:41.891Z,99140.94
2022-09-30T18:04:09.365Z,99140.34
2022-09-30T18:06:37.037Z,99148.97
2022-09-30T18:09:04.330Z,99153.75
2022-09-30T18:11:32.036Z,99150.28
2022-09-30T18:14:02.275Z,99144.09
2022-09-30T18:16:33.851Z,99148.91
2022-09-30T18:19:06.018Z,99144.56
2022-09-30T18:21:37.230Z,99144.56
2022-09-30T18:24:09.820Z,99143.75
2022-09-30T18:26:37.205Z,99138.38
2022-09-30T18:29:05.249Z,99151.03
2022-09-30T18:31:38.205Z,99161.97
2022-09-30T18:34:07.134Z,99166.28
2022-09-30T18:36:37.327Z,99163.84
2022-09-30T18:39:05.596Z,99165.72
2022-09-30T18:41:35.334Z,99170.28
2022-09-30T18:44:03.796Z,99165.94
2022-09-30T18:46:31.706Z,99169.69
2022-09-30T18:48:59.121Z,99163.50
2022-09-30T18:51:27.618Z,99165.38
2022-09-30T18:54:00.767Z,99164.53
2022-09-30T18:56:32.472Z,99162.94
2022-09-30T18:59:04.202Z,99163.72
2022-09-30T19:01:34.665Z,99159.44
2022-09-30T19:04:04.789Z,99165.84
2022-09-30T19:06:33.282Z,99172.03
2022-09-30T19:09:00.733Z,99168.78
2022-09-30T19:11:30.728Z,99165.03
2022-09-30T19:14:02.494Z,99178.69
2022-09-30T19:16:38.510Z,99173.31
2022-09-30T19:19:11.265Z,99166.31
2022-09-30T19:21:40.071Z,99169.00
2022-09-30T19:24:09.262Z,99171.69
2022-09-30T19:26:39.265Z,99173.81
2022-09-30T19:29:10.444Z,99170.09
2022-09-30T19:31:38.366Z,99164.72
2022-09-30T19:34:06.375Z,99163.06
2022-09-30T19:36:46.302Z,99168.44
2022-09-30T19:39:17.851Z,99168.44
2022-09-30T19:41:47.387Z,99166.84
2022-09-30T19:44:19.562Z,99170.56
2022-09-30T19:46:51.638Z,99166.25
2022-09-30T19:49:26.140Z,99168.91
2022-09-30T19:51:54.363Z,99173.50
2022-09-30T19:54:37.658Z,99176.41
2022-09-30T19:57:08.345Z,99165.69
2022-09-30T19:59:35.696Z,99173.16
2022-09-30T20:02:04.123Z,99169.44
2022-09-30T20:04:34.398Z,99177.69
2022-09-30T20:07:02.289Z,99178.53
2022-09-30T20:09:29.498Z,99174.22
2022-09-30T20:11:57.488Z,99179.00
2022-09-30T20:14:43.451Z,99183.56
2022-09-30T20:17:12.240Z,99187.03
2022-09-30T20:19:39.387Z,99184.34
2022-09-30T20:22:06.738Z,99192.66
2022-09-30T20:24:34.851Z,99191.03
2022-09-30T20:27:02.801Z,99195.59
2022-09-30T20:29:30.595Z,99189.63
2022-09-30T20:31:58.518Z,99191.28
2022-09-30T20:34:25.594Z,99191.28
2022-09-30T20:36:52.717Z,99192.31
2022-09-30T20:39:20.626Z,99202.25
2022-09-30T20:41:48.811Z,99194.44
2022-09-30T20:44:17.014Z,99194.44
2022-09-30T20:46:44.522Z,99188.25
2022-09-30T20:49:11.587Z,99192.81
2022-09-30T20:51:39.070Z,99195.50
2022-09-30T20:54:06.554Z,99197.59
2022-09-30T20:56:55.685Z,99194.91
2022-09-30T20:59:21.284Z,99202.16
2022-09-30T21:01:48.317Z,99197.84
2022-09-30T21:04:15.612Z,99199.72
2022-09-30T21:06:43.142Z,99200.78
2022-09-30T21:09:13.169Z,99201.81
2022-09-30T21:11:42.281Z,99193.78
2022-09-30T21:14:09.941Z,99195.88
2022-09-30T21:16:37.184Z,99195.06
2022-09-30T21:19:04.509Z,99195.06
2022-09-30T21:21:32.513Z,99198.31
2022-09-30T21:23:59.926Z,99188.88
2022-09-30T21:26:27.934Z,99192.63
2022-09-30T21:28:55.444Z,99189.97
2022-09-30T21:31:27.307Z,99187.50
2022-09-30T21:33:58.387Z,99196.38
2022-09-30T21:36:28.174Z,99190.19
2022-09-30T21:39:05.630Z,99191.00
2022-09-30T21:41:34.871Z,99195.78
2022-09-30T21:44:04.334Z,99191.47
2022-09-30T21:46:32.116Z,99196.84
2022-09-30T21:49:15.237Z,99189.88
2022-09-30T21:51:43.128Z,99189.88
2022-09-30T21:54:13.358Z,99192.78
2022-09-30T21:56:42.658Z,99196.28
2022-09-30T21:59:11.598Z,99197.34
2022-09-30T22:01:39.593Z,99197.34
2022-09-30T22:04:07.278Z,99188.69
2022-09-30T22:06:34.730Z,99185.22
2022-09-30T22:09:03.885Z,99187.09
2022-09-30T22:11:32.362Z,99187.09
2022-09-30T22:14:00.270Z,99188.13
2022-09-30T22:16:34.838Z,99190.81
2022-09-30T22:19:06.861Z,99189.44
2022-09-30T22:21:37.230Z,99180.56
2022-09-30T22:24:08.093Z,99178.94
2022-09-30T22:26:37.186Z,99181.63
2022-09-30T22:29:10.393Z,99184.31
2022-09-30T22:31:39.613Z,99180.00
2022-09-30T22:34:31.181Z,99179.44
2022-09-30T22:37:18.677Z,99179.44
2022-09-30T22:39:45.706Z,99175.94
2022-09-30T22:42:14.488Z,99177.22
2022-09-30T22:44:41.611Z,99176.66
2022-09-30T22:47:10.181Z,99175.84
2022-09-30T22:49:38.138Z,99183.31
2022-09-30T22:52:06.581Z,99186.22
2022-09-30T22:54:36.674Z,99186.47
2022-09-30T22:57:05.564Z,99189.13
2022-09-30T22:59:32.603Z,99191.25
2022-09-30T23:02:00.056Z,99193.09
2022-09-30T23:04:29.746Z,99194.19
2022-09-30T23:06:57.221Z,99186.34
2022-09-30T23:09:24.811Z,99188.00
2022-09-30T23:11:55.182Z,99185.56
2022-09-30T23:14:22.848Z,99183.94
2022-09-30T23:16:51.276Z,99173.22
2022-09-30T23:19:20.003Z,99177.75
2022-09-30T23:21:47.403Z,99175.31
2022-09-30T23:24:14.649Z,99173.13
2022-09-30T23:26:42.173Z,99183.81
2022-09-30T23:29:13.778Z,99189.44
2022-09-30T23:31:41.643Z,99196.09
2022-09-30T23:34:09.701Z,99198.75
2022-09-30T23:36:37.916Z,99196.09
2022-09-30T23:39:12.522Z,99183.25
2022-09-30T23:41:40.484Z,99187.47
2022-09-30T23:44:09.630Z,99188.78
2022-09-30T23:46:37.149Z,99189.56
2022-09-30T23:49:04.497Z,99185.47
2022-09-30T23:51:33.528Z,99188.41
2022-09-30T23:54:02.284Z,99188.41
2022-09-30T23:56:30.334Z,99186.78
2022-09-30T23:58:57.409Z,99179.81
